sensor_id;sensor_type;location;lat;lon;timestamp;temperature;humidity
16955;DHT22;8594;52.052;8.354;2023-12-29T00:00:02;11.00;99.90
16955;DHT22;8594;52.052;8.354;2023-12-29T00:02:29;10.90;99.90
16955;DHT22;8594;52.052;8.354;2023-12-29T00:04:55;11.10;99.90
16955;DHT22;8594;52.052;8.354;2023-12-29T00:07:22;11.00;99.90
16955;DHT22;8594;52.052;8.354;2023-12-29T00:09:49;11.10;99.90
16955;DHT22;8594;52.052;8.354;2023-12-29T00:12:17;11.10;99.90
16955;DHT22;8594;52.052;8.354;2023-12-29T00:14:43;11.10;99.90
16955;DHT22;8594;52.052;8.354;2023-12-29T00:17:10;11.10;99.90
16955;DHT22;8594;52.052;8.354;2023-12-29T00:19:37;11.10;99.90
16955;DHT22;8594;52.052;8.354;2023-12-29T00:22:04;11.10;99.90
16955;DHT22;8594;52.052;8.354;2023-12-29T00:24:30;11.20;99.90
16955;DHT22;8594;52.052;8.354;2023-12-29T00:26:57;11.20;99.90
16955;DHT22;8594;52.052;8.354;2023-12-29T00:29:26;11.10;99.90
16955;DHT22;8594;52.052;8.354;2023-12-29T00:31:58;11.10;99.90
16955;DHT22;8594;52.052;8.354;2023-12-29T00:34:25;11.10;99.90
16955;DHT22;8594;52.052;8.354;2023-12-29T00:36:52;11.20;99.90
16955;DHT22;8594;52.052;8.354;2023-12-29T00:39:19;11.20;99.90
16955;DHT22;8594;52.052;8.354;2023-12-29T00:41:53;11.20;99.90
16955;DHT22;8594;52.052;8.354;2023-12-29T00:44:21;11.00;99.90
16955;DHT22;8594;52.052;8.354;2023-12-29T00:46:50;11.00;99.90
16955;DHT22;8594;52.052;8.354;2023-12-29T00:49:17;10.90;99.90
16955;DHT22;8594;52.052;8.354;2023-12-29T00:51:43;10.80;99.90
16955;DHT22;8594;52.052;8.354;2023-12-29T00:54:10;10.80;99.90
16955;DHT22;8594;52.052;8.354;2023-12-29T00:56:37;11.00;99.90
16955;DHT22;8594;52.052;8.354;2023-12-29T00:59:04;11.00;99.90
16955;DHT22;8594;52.052;8.354;2023-12-29T01:01:33;11.00;99.90
16955;DHT22;8594;52.052;8.354;2023-12-29T01:04:02;11.10;99.90
16955;DHT22;8594;52.052;8.354;2023-12-29T01:06:29;11.10;99.90
16955;DHT22;8594;52.052;8.354;2023-12-29T01:08:56;11.00;99.90
16955;DHT22;8594;52.052;8.354;2023-12-29T01:11:23;11.00;99.90
16955;DHT22;8594;52.052;8.354;2023-12-29T01:13:50;11.20;99.90
16955;DHT22;8594;52.052;8.354;2023-12-29T01:16:16;11.00;99.90
16955;DHT22;8594;52.052;8.354;2023-12-29T01:18:43;11.00;99.90
16955;DHT22;8594;52.052;8.354;2023-12-29T01:21:11;11.00;99.90
16955;DHT22;8594;52.052;8.354;2023-12-29T01:23:38;11.00;99.90
16955;DHT22;8594;52.052;8.354;2023-12-29T01:26:04;11.00;99.90
16955;DHT22;8594;52.052;8.354;2023-12-29T01:28:31;11.10;99.90
16955;DHT22;8594;52.052;8.354;2023-12-29T01:30:58;11.10;99.90
16955;DHT22;8594;52.052;8.354;2023-12-29T01:33:25;11.20;99.90
16955;DHT22;8594;52.052;8.354;2023-12-29T01:35:51;11.10;99.90
16955;DHT22;8594;52.052;8.354;2023-12-29T01:38:20;11.20;99.90
16955;DHT22;8594;52.052;8.354;2023-12-29T01:40:46;11.20;99.90
16955;DHT22;8594;52.052;8.354;2023-12-29T01:43:13;11.20;99.90
16955;DHT22;8594;52.052;8.354;2023-12-29T01:45:41;11.30;99.90
16955;DHT22;8594;52.052;8.354;2023-12-29T01:48:08;11.40;99.90
16955;DHT22;8594;52.052;8.354;2023-12-29T01:50:35;11.40;99.90
16955;DHT22;8594;52.052;8.354;2023-12-29T01:53:03;11.50;99.90
16955;DHT22;8594;52.052;8.354;2023-12-29T01:55:33;11.40;99.90
16955;DHT22;8594;52.052;8.354;2023-12-29T01:58:00;11.40;99.90
16955;DHT22;8594;52.052;8.354;2023-12-29T02:00:29;11.40;99.90
16955;DHT22;8594;52.052;8.354;2023-12-29T02:02:57;11.40;99.90
16955;DHT22;8594;52.052;8.354;2023-12-29T02:05:25;11.30;99.90
16955;DHT22;8594;52.052;8.354;2023-12-29T02:07:54;11.30;99.90
16955;DHT22;8594;52.052;8.354;2023-12-29T02:10:21;11.40;99.90
16955;DHT22;8594;52.052;8.354;2023-12-29T02:12:50;11.30;99.90
16955;DHT22;8594;52.052;8.354;2023-12-29T02:15:19;11.40;99.90
16955;DHT22;8594;52.052;8.354;2023-12-29T02:17:50;11.50;99.90
16955;DHT22;8594;52.052;8.354;2023-12-29T02:20:23;11.30;99.90
16955;DHT22;8594;52.052;8.354;2023-12-29T02:22:50;11.20;99.90
16955;DHT22;8594;52.052;8.354;2023-12-29T02:25:18;11.20;99.90
16955;DHT22;8594;52.052;8.354;2023-12-29T02:27:50;11.30;99.90
16955;DHT22;8594;52.052;8.354;2023-12-29T02:30:24;11.20;99.90
16955;DHT22;8594;52.052;8.354;2023-12-29T02:32:55;11.10;99.90
16955;DHT22;8594;52.052;8.354;2023-12-29T02:35:28;11.20;99.90
16955;DHT22;8594;52.052;8.354;2023-12-29T02:37:58;11.20;99.90
16955;DHT22;8594;52.052;8.354;2023-12-29T02:40:26;11.00;99.90
16955;DHT22;8594;52.052;8.354;2023-12-29T02:42:53;10.70;99.90
16955;DHT22;8594;52.052;8.354;2023-12-29T02:45:20;10.60;99.90
16955;DHT22;8594;52.052;8.354;2023-12-29T02:47:48;10.50;99.90
16955;DHT22;8594;52.052;8.354;2023-12-29T02:50:15;10.40;99.90
16955;DHT22;8594;52.052;8.354;2023-12-29T02:52:42;10.40;99.90
16955;DHT22;8594;52.052;8.354;2023-12-29T02:55:09;10.40;99.90
16955;DHT22;8594;52.052;8.354;2023-12-29T02:57:37;10.40;99.90
16955;DHT22;8594;52.052;8.354;2023-12-29T03:00:05;10.30;99.90
16955;DHT22;8594;52.052;8.354;2023-12-29T03:02:33;10.20;99.90
16955;DHT22;8594;52.052;8.354;2023-12-29T03:05:00;10.20;99.90
16955;DHT22;8594;52.052;8.354;2023-12-29T03:07:27;10.20;99.90
16955;DHT22;8594;52.052;8.354;2023-12-29T03:09:54;10.20;99.90
16955;DHT22;8594;52.052;8.354;2023-12-29T03:12:21;10.20;99.90
16955;DHT22;8594;52.052;8.354;2023-12-29T03:14:49;10.20;99.90
16955;DHT22;8594;52.052;8.354;2023-12-29T03:17:16;10.30;99.90
16955;DHT22;8594;52.052;8.354;2023-12-29T03:19:43;10.40;99.90
16955;DHT22;8594;52.052;8.354;2023-12-29T03:22:09;10.30;99.90
16955;DHT22;8594;52.052;8.354;2023-12-29T03:24:37;10.30;99.90
16955;DHT22;8594;52.052;8.354;2023-12-29T03:27:07;10.10;99.90
16955;DHT22;8594;52.052;8.354;2023-12-29T03:29:34;10.20;99.90
16955;DHT22;8594;52.052;8.354;2023-12-29T03:32:02;10.20;99.90
16955;DHT22;8594;52.052;8.354;2023-12-29T03:34:29;10.20;99.90
16955;DHT22;8594;52.052;8.354;2023-12-29T03:36:56;10.30;99.90
16955;DHT22;8594;52.052;8.354;2023-12-29T03:39:23;10.10;99.90
16955;DHT22;8594;52.052;8.354;2023-12-29T03:41:49;10.00;99.90
16955;DHT22;8594;52.052;8.354;2023-12-29T03:44:16;9.90;99.90
16955;DHT22;8594;52.052;8.354;2023-12-29T03:46:43;9.90;99.90
16955;DHT22;8594;52.052;8.354;2023-12-29T03:49:11;10.00;99.90
16955;DHT22;8594;52.052;8.354;2023-12-29T03:51:38;10.20;99.90
16955;DHT22;8594;52.052;8.354;2023-12-29T03:54:05;10.20;99.90
16955;DHT22;8594;52.052;8.354;2023-12-29T03:56:31;10.20;99.90
16955;DHT22;8594;52.052;8.354;2023-12-29T03:58:58;10.10;99.90
16955;DHT22;8594;52.052;8.354;2023-12-29T04:01:25;10.20;99.90
16955;DHT22;8594;52.052;8.354;2023-12-29T04:03:53;10.20;99.90
16955;DHT22;8594;52.052;8.354;2023-12-29T04:06:21;10.10;99.90
16955;DHT22;8594;52.052;8.354;2023-12-29T04:08:47;10.10;99.90
16955;DHT22;8594;52.052;8.354;2023-12-29T04:11:14;10.10;99.90
16955;DHT22;8594;52.052;8.354;2023-12-29T04:13:41;9.80;99.90
16955;DHT22;8594;52.052;8.354;2023-12-29T04:16:07;9.90;99.90
16955;DHT22;8594;52.052;8.354;2023-12-29T04:18:34;9.90;99.90
16955;DHT22;8594;52.052;8.354;2023-12-29T04:21:01;9.80;99.90
16955;DHT22;8594;52.052;8.354;2023-12-29T04:23:29;9.80;99.90
16955;DHT22;8594;52.052;8.354;2023-12-29T04:25:56;9.80;99.90
16955;DHT22;8594;52.052;8.354;2023-12-29T04:28:22;9.80;99.90
16955;DHT22;8594;52.052;8.354;2023-12-29T04:30:49;9.80;99.90
16955;DHT22;8594;52.052;8.354;2023-12-29T04:33:16;9.80;99.90
16955;DHT22;8594;52.052;8.354;2023-12-29T04:35:43;9.90;99.90
16955;DHT22;8594;52.052;8.354;2023-12-29T04:38:09;9.90;99.90
16955;DHT22;8594;52.052;8.354;2023-12-29T04:40:37;9.90;99.90
16955;DHT22;8594;52.052;8.354;2023-12-29T04:43:04;9.70;99.90
16955;DHT22;8594;52.052;8.354;2023-12-29T04:45:31;9.70;99.90
16955;DHT22;8594;52.052;8.354;2023-12-29T04:47:57;9.80;99.90
16955;DHT22;8594;52.052;8.354;2023-12-29T04:50:24;9.80;99.90
16955;DHT22;8594;52.052;8.354;2023-12-29T04:52:51;9.90;99.90
16955;DHT22;8594;52.052;8.354;2023-12-29T04:55:17;10.00;99.90
16955;DHT22;8594;52.052;8.354;2023-12-29T04:57:45;9.90;99.90
16955;DHT22;8594;52.052;8.354;2023-12-29T05:00:13;9.90;99.90
16955;DHT22;8594;52.052;8.354;2023-12-29T05:02:40;9.80;99.90
16955;DHT22;8594;52.052;8.354;2023-12-29T05:05:08;9.90;99.90
16955;DHT22;8594;52.052;8.354;2023-12-29T05:07:35;9.90;99.90
16955;DHT22;8594;52.052;8.354;2023-12-29T05:10:02;10.00;99.90
16955;DHT22;8594;52.052;8.354;2023-12-29T05:12:29;10.20;99.90
16955;DHT22;8594;52.052;8.354;2023-12-29T05:14:58;10.20;99.90
16955;DHT22;8594;52.052;8.354;2023-12-29T05:17:24;10.30;99.90
16955;DHT22;8594;52.052;8.354;2023-12-29T05:19:51;10.20;99.90
16955;DHT22;8594;52.052;8.354;2023-12-29T05:22:18;10.10;99.90
16955;DHT22;8594;52.052;8.354;2023-12-29T05:24:44;10.20;99.90
16955;DHT22;8594;52.052;8.354;2023-12-29T05:27:11;10.20;99.90
16955;DHT22;8594;52.052;8.354;2023-12-29T05:29:38;10.30;99.90
16955;DHT22;8594;52.052;8.354;2023-12-29T05:32:07;10.20;99.90
16955;DHT22;8594;52.052;8.354;2023-12-29T05:34:34;10.20;99.90
16955;DHT22;8594;52.052;8.354;2023-12-29T05:37:01;10.20;99.90
16955;DHT22;8594;52.052;8.354;2023-12-29T05:39:27;10.40;99.90
16955;DHT22;8594;52.052;8.354;2023-12-29T05:41:54;10.40;99.90
16955;DHT22;8594;52.052;8.354;2023-12-29T05:44:21;10.30;99.90
16955;DHT22;8594;52.052;8.354;2023-12-29T05:46:48;10.40;99.90
16955;DHT22;8594;52.052;8.354;2023-12-29T05:49:16;10.40;99.90
16955;DHT22;8594;52.052;8.354;2023-12-29T05:51:43;10.40;99.90
16955;DHT22;8594;52.052;8.354;2023-12-29T05:54:10;10.50;99.90
16955;DHT22;8594;52.052;8.354;2023-12-29T05:56:37;10.40;99.90
16955;DHT22;8594;52.052;8.354;2023-12-29T05:59:04;10.40;99.90
16955;DHT22;8594;52.052;8.354;2023-12-29T06:01:30;10.50;99.90
16955;DHT22;8594;52.052;8.354;2023-12-29T06:03:57;10.50;99.90
16955;DHT22;8594;52.052;8.354;2023-12-29T06:06:25;10.60;99.90
16955;DHT22;8594;52.052;8.354;2023-12-29T06:08:52;10.80;99.90
16955;DHT22;8594;52.052;8.354;2023-12-29T06:11:19;10.70;99.90
16955;DHT22;8594;52.052;8.354;2023-12-29T06:13:46;10.60;99.90
16955;DHT22;8594;52.052;8.354;2023-12-29T06:16:17;10.50;99.90
16955;DHT22;8594;52.052;8.354;2023-12-29T06:18:45;10.60;99.90
16955;DHT22;8594;52.052;8.354;2023-12-29T06:21:11;10.60;99.90
16955;DHT22;8594;52.052;8.354;2023-12-29T06:23:39;10.50;99.90
16955;DHT22;8594;52.052;8.354;2023-12-29T06:26:13;10.50;99.90
16955;DHT22;8594;52.052;8.354;2023-12-29T06:28:41;10.60;99.90
16955;DHT22;8594;52.052;8.354;2023-12-29T06:31:08;10.60;99.90
16955;DHT22;8594;52.052;8.354;2023-12-29T06:33:35;10.70;99.90
16955;DHT22;8594;52.052;8.354;2023-12-29T06:36:02;10.70;99.90
16955;DHT22;8594;52.052;8.354;2023-12-29T06:38:29;10.60;99.90
16955;DHT22;8594;52.052;8.354;2023-12-29T06:40:57;10.70;99.90
16955;DHT22;8594;52.052;8.354;2023-12-29T06:43:24;10.80;99.90
16955;DHT22;8594;52.052;8.354;2023-12-29T06:45:50;10.70;99.90
16955;DHT22;8594;52.052;8.354;2023-12-29T06:48:17;10.80;99.90
16955;DHT22;8594;52.052;8.354;2023-12-29T06:50:44;10.60;99.90
16955;DHT22;8594;52.052;8.354;2023-12-29T06:53:11;10.70;99.90
16955;DHT22;8594;52.052;8.354;2023-12-29T06:55:38;10.70;99.90
16955;DHT22;8594;52.052;8.354;2023-12-29T06:58:07;10.70;99.90
16955;DHT22;8594;52.052;8.354;2023-12-29T07:00:34;10.70;99.90
16955;DHT22;8594;52.052;8.354;2023-12-29T07:03:00;10.80;99.90
16955;DHT22;8594;52.052;8.354;2023-12-29T07:05:27;10.70;99.90
16955;DHT22;8594;52.052;8.354;2023-12-29T07:07:54;10.80;99.90
16955;DHT22;8594;52.052;8.354;2023-12-29T07:10:21;10.90;99.90
16955;DHT22;8594;52.052;8.354;2023-12-29T07:12:47;10.80;99.90
16955;DHT22;8594;52.052;8.354;2023-12-29T07:15:15;10.80;99.90
16955;DHT22;8594;52.052;8.354;2023-12-29T07:17:42;10.70;99.90
16955;DHT22;8594;52.052;8.354;2023-12-29T07:20:09;10.70;99.90
16955;DHT22;8594;52.052;8.354;2023-12-29T07:22:36;10.70;99.90
16955;DHT22;8594;52.052;8.354;2023-12-29T07:25:03;10.80;99.90
16955;DHT22;8594;52.052;8.354;2023-12-29T07:27:30;10.70;99.90
16955;DHT22;8594;52.052;8.354;2023-12-29T07:29:57;10.70;99.90
16955;DHT22;8594;52.052;8.354;2023-12-29T07:32:25;10.80;99.90
16955;DHT22;8594;52.052;8.354;2023-12-29T07:34:52;10.70;99.90
16955;DHT22;8594;52.052;8.354;2023-12-29T07:37:19;10.80;99.90
16955;DHT22;8594;52.052;8.354;2023-12-29T07:39:45;10.80;99.90
16955;DHT22;8594;52.052;8.354;2023-12-29T07:42:12;10.80;99.90
16955;DHT22;8594;52.052;8.354;2023-12-29T07:44:42;10.90;99.90
16955;DHT22;8594;52.052;8.354;2023-12-29T07:47:08;10.90;99.90
16955;DHT22;8594;52.052;8.354;2023-12-29T07:49:37;10.90;99.90
16955;DHT22;8594;52.052;8.354;2023-12-29T07:52:04;10.90;99.90
16955;DHT22;8594;52.052;8.354;2023-12-29T07:54:31;10.90;99.90
16955;DHT22;8594;52.052;8.354;2023-12-29T07:56:57;11.00;99.90
16955;DHT22;8594;52.052;8.354;2023-12-29T07:59:24;10.90;99.90
16955;DHT22;8594;52.052;8.354;2023-12-29T08:01:52;10.80;99.90
16955;DHT22;8594;52.052;8.354;2023-12-29T08:04:18;10.80;99.90
16955;DHT22;8594;52.052;8.354;2023-12-29T08:06:46;10.80;99.90
16955;DHT22;8594;52.052;8.354;2023-12-29T08:09:13;10.80;99.90
16955;DHT22;8594;52.052;8.354;2023-12-29T08:11:40;10.90;99.90
16955;DHT22;8594;52.052;8.354;2023-12-29T08:14:08;10.90;99.90
16955;DHT22;8594;52.052;8.354;2023-12-29T08:16:38;10.90;99.90
16955;DHT22;8594;52.052;8.354;2023-12-29T08:19:05;11.00;99.90
16955;DHT22;8594;52.052;8.354;2023-12-29T08:21:32;10.90;99.90
16955;DHT22;8594;52.052;8.354;2023-12-29T08:24:00;11.00;99.90
16955;DHT22;8594;52.052;8.354;2023-12-29T08:26:27;11.00;99.90
16955;DHT22;8594;52.052;8.354;2023-12-29T08:28:54;10.80;99.90
16955;DHT22;8594;52.052;8.354;2023-12-29T08:31:21;10.90;99.90
16955;DHT22;8594;52.052;8.354;2023-12-29T08:33:48;10.90;99.90
16955;DHT22;8594;52.052;8.354;2023-12-29T08:36:18;10.90;99.90
16955;DHT22;8594;52.052;8.354;2023-12-29T08:38:46;10.80;99.90
16955;DHT22;8594;52.052;8.354;2023-12-29T08:41:14;10.60;99.90
16955;DHT22;8594;52.052;8.354;2023-12-29T08:43:41;10.60;99.90
16955;DHT22;8594;52.052;8.354;2023-12-29T08:46:08;10.60;99.90
16955;DHT22;8594;52.052;8.354;2023-12-29T08:48:35;10.50;99.90
16955;DHT22;8594;52.052;8.354;2023-12-29T08:51:02;10.40;99.90
16955;DHT22;8594;52.052;8.354;2023-12-29T08:53:29;10.20;99.90
16955;DHT22;8594;52.052;8.354;2023-12-29T08:55:59;10.00;99.90
16955;DHT22;8594;52.052;8.354;2023-12-29T08:58:27;10.20;99.90
16955;DHT22;8594;52.052;8.354;2023-12-29T09:00:53;10.00;99.90
16955;DHT22;8594;52.052;8.354;2023-12-29T09:03:20;10.00;99.90
16955;DHT22;8594;52.052;8.354;2023-12-29T09:05:47;10.10;99.90
16955;DHT22;8594;52.052;8.354;2023-12-29T09:08:14;10.00;99.90
16955;DHT22;8594;52.052;8.354;2023-12-29T09:10:40;10.10;99.90
16955;DHT22;8594;52.052;8.354;2023-12-29T09:13:08;10.20;99.90
16955;DHT22;8594;52.052;8.354;2023-12-29T09:15:36;10.20;99.90
16955;DHT22;8594;52.052;8.354;2023-12-29T09:18:04;10.00;99.90
16955;DHT22;8594;52.052;8.354;2023-12-29T09:20:32;9.90;99.90
16955;DHT22;8594;52.052;8.354;2023-12-29T09:22:59;9.90;99.90
16955;DHT22;8594;52.052;8.354;2023-12-29T09:25:26;9.80;99.90
16955;DHT22;8594;52.052;8.354;2023-12-29T09:27:53;9.90;99.90
16955;DHT22;8594;52.052;8.354;2023-12-29T09:30:19;10.00;99.90
16955;DHT22;8594;52.052;8.354;2023-12-29T09:32:47;9.90;99.90
16955;DHT22;8594;52.052;8.354;2023-12-29T09:35:14;10.10;99.90
16955;DHT22;8594;52.052;8.354;2023-12-29T09:37:41;9.90;99.90
16955;DHT22;8594;52.052;8.354;2023-12-29T09:40:10;9.90;99.90
16955;DHT22;8594;52.052;8.354;2023-12-29T09:42:39;9.90;99.90
16955;DHT22;8594;52.052;8.354;2023-12-29T09:45:10;10.00;99.90
16955;DHT22;8594;52.052;8.354;2023-12-29T09:47:40;9.90;99.90
16955;DHT22;8594;52.052;8.354;2023-12-29T09:50:11;9.90;99.90
16955;DHT22;8594;52.052;8.354;2023-12-29T09:52:40;9.90;99.90
16955;DHT22;8594;52.052;8.354;2023-12-29T09:55:08;9.90;99.90
16955;DHT22;8594;52.052;8.354;2023-12-29T09:57:36;9.90;99.90
16955;DHT22;8594;52.052;8.354;2023-12-29T10:00:05;10.00;99.90
16955;DHT22;8594;52.052;8.354;2023-12-29T10:02:36;10.10;99.90
16955;DHT22;8594;52.052;8.354;2023-12-29T10:05:04;10.10;99.90
16955;DHT22;8594;52.052;8.354;2023-12-29T10:07:36;10.10;99.90
16955;DHT22;8594;52.052;8.354;2023-12-29T10:10:04;10.10;99.90
16955;DHT22;8594;52.052;8.354;2023-12-29T10:12:33;10.10;99.90
16955;DHT22;8594;52.052;8.354;2023-12-29T10:15:05;9.90;99.90
16955;DHT22;8594;52.052;8.354;2023-12-29T10:17:48;10.00;99.90
16955;DHT22;8594;52.052;8.354;2023-12-29T10:20:44;10.10;99.90
16955;DHT22;8594;52.052;8.354;2023-12-29T10:23:17;10.10;99.90
16955;DHT22;8594;52.052;8.354;2023-12-29T10:25:47;10.10;99.90
16955;DHT22;8594;52.052;8.354;2023-12-29T10:28:16;10.00;99.90
16955;DHT22;8594;52.052;8.354;2023-12-29T10:30:43;10.00;99.90
16955;DHT22;8594;52.052;8.354;2023-12-29T10:33:10;10.10;99.90
16955;DHT22;8594;52.052;8.354;2023-12-29T10:35:56;10.10;99.90
16955;DHT22;8594;52.052;8.354;2023-12-29T10:38:28;10.20;99.90
16955;DHT22;8594;52.052;8.354;2023-12-29T10:41:12;10.30;99.90
16955;DHT22;8594;52.052;8.354;2023-12-29T10:43:41;10.50;99.90
16955;DHT22;8594;52.052;8.354;2023-12-29T10:46:10;10.50;99.90
16955;DHT22;8594;52.052;8.354;2023-12-29T10:48:38;10.40;99.90
16955;DHT22;8594;52.052;8.354;2023-12-29T10:51:06;10.50;99.90
16955;DHT22;8594;52.052;8.354;2023-12-29T10:53:35;10.60;99.90
16955;DHT22;8594;52.052;8.354;2023-12-29T10:56:03;10.70;99.90
16955;DHT22;8594;52.052;8.354;2023-12-29T10:58:31;10.70;99.90
16955;DHT22;8594;52.052;8.354;2023-12-29T11:01:14;10.60;99.90
16955;DHT22;8594;52.052;8.354;2023-12-29T11:03:44;10.60;99.90
16955;DHT22;8594;52.052;8.354;2023-12-29T11:06:24;10.80;99.90
16955;DHT22;8594;52.052;8.354;2023-12-29T11:08:52;10.80;99.90
16955;DHT22;8594;52.052;8.354;2023-12-29T11:11:19;11.00;99.90
16955;DHT22;8594;52.052;8.354;2023-12-29T11:13:46;10.80;99.90
16955;DHT22;8594;52.052;8.354;2023-12-29T11:16:14;10.90;99.90
16955;DHT22;8594;52.052;8.354;2023-12-29T11:18:47;10.90;99.90
16955;DHT22;8594;52.052;8.354;2023-12-29T11:21:16;10.80;99.90
16955;DHT22;8594;52.052;8.354;2023-12-29T11:23:43;10.70;99.90
16955;DHT22;8594;52.052;8.354;2023-12-29T11:26:12;10.80;99.90
16955;DHT22;8594;52.052;8.354;2023-12-29T11:28:39;10.80;99.90
16955;DHT22;8594;52.052;8.354;2023-12-29T11:31:07;10.70;99.90
16955;DHT22;8594;52.052;8.354;2023-12-29T11:33:38;10.70;99.90
16955;DHT22;8594;52.052;8.354;2023-12-29T11:36:11;10.70;99.90
16955;DHT22;8594;52.052;8.354;2023-12-29T11:38:49;10.60;99.90
16955;DHT22;8594;52.052;8.354;2023-12-29T11:41:33;10.50;99.90
16955;DHT22;8594;52.052;8.354;2023-12-29T11:44:08;10.40;99.90
16955;DHT22;8594;52.052;8.354;2023-12-29T11:46:37;10.50;99.90
16955;DHT22;8594;52.052;8.354;2023-12-29T11:49:04;10.50;99.90
16955;DHT22;8594;52.052;8.354;2023-12-29T11:51:33;10.50;99.90
16955;DHT22;8594;52.052;8.354;2023-12-29T11:54:02;10.60;99.90
16955;DHT22;8594;52.052;8.354;2023-12-29T11:56:36;10.70;99.90
16955;DHT22;8594;52.052;8.354;2023-12-29T11:59:15;10.80;99.90
16955;DHT22;8594;52.052;8.354;2023-12-29T12:01:43;10.80;99.90
16955;DHT22;8594;52.052;8.354;2023-12-29T12:04:38;10.90;99.90
16955;DHT22;8594;52.052;8.354;2023-12-29T12:07:15;10.90;99.90
16955;DHT22;8594;52.052;8.354;2023-12-29T12:09:43;10.90;99.90
16955;DHT22;8594;52.052;8.354;2023-12-29T12:12:39;10.90;99.90
16955;DHT22;8594;52.052;8.354;2023-12-29T12:15:31;11.00;99.90
16955;DHT22;8594;52.052;8.354;2023-12-29T12:17:59;10.90;99.90
16955;DHT22;8594;52.052;8.354;2023-12-29T12:20:29;10.90;99.90
16955;DHT22;8594;52.052;8.354;2023-12-29T12:22:58;10.80;99.90
16955;DHT22;8594;52.052;8.354;2023-12-29T12:25:26;10.70;99.90
16955;DHT22;8594;52.052;8.354;2023-12-29T12:27:56;10.60;99.90
16955;DHT22;8594;52.052;8.354;2023-12-29T12:30:23;10.60;99.90
16955;DHT22;8594;52.052;8.354;2023-12-29T12:32:57;10.70;99.90
16955;DHT22;8594;52.052;8.354;2023-12-29T12:35:24;10.80;99.90
16955;DHT22;8594;52.052;8.354;2023-12-29T12:38:07;10.90;99.90
16955;DHT22;8594;52.052;8.354;2023-12-29T12:40:34;10.80;99.90
16955;DHT22;8594;52.052;8.354;2023-12-29T12:43:03;10.90;99.90
16955;DHT22;8594;52.052;8.354;2023-12-29T12:45:33;10.90;99.90
16955;DHT22;8594;52.052;8.354;2023-12-29T12:48:03;10.90;99.90
16955;DHT22;8594;52.052;8.354;2023-12-29T12:50:42;10.90;99.90
16955;DHT22;8594;52.052;8.354;2023-12-29T12:53:11;11.10;99.90
16955;DHT22;8594;52.052;8.354;2023-12-29T12:55:45;11.10;99.90
16955;DHT22;8594;52.052;8.354;2023-12-29T12:58:15;11.30;99.90
16955;DHT22;8594;52.052;8.354;2023-12-29T13:00:42;11.30;99.90
16955;DHT22;8594;52.052;8.354;2023-12-29T13:03:09;11.40;99.90
16955;DHT22;8594;52.052;8.354;2023-12-29T13:05:36;11.40;99.90
16955;DHT22;8594;52.052;8.354;2023-12-29T13:08:05;11.40;99.90
16955;DHT22;8594;52.052;8.354;2023-12-29T13:10:32;11.50;99.90
16955;DHT22;8594;52.052;8.354;2023-12-29T13:12:59;11.60;99.90
16955;DHT22;8594;52.052;8.354;2023-12-29T13:15:27;11.50;99.90
16955;DHT22;8594;52.052;8.354;2023-12-29T13:17:55;11.60;99.90
16955;DHT22;8594;52.052;8.354;2023-12-29T13:20:22;11.80;99.90
16955;DHT22;8594;52.052;8.354;2023-12-29T13:22:50;11.90;99.90
16955;DHT22;8594;52.052;8.354;2023-12-29T13:25:20;11.70;99.90
16955;DHT22;8594;52.052;8.354;2023-12-29T13:27:51;11.70;99.90
16955;DHT22;8594;52.052;8.354;2023-12-29T13:30:20;11.70;99.90
16955;DHT22;8594;52.052;8.354;2023-12-29T13:32:50;11.80;99.90
16955;DHT22;8594;52.052;8.354;2023-12-29T13:35:21;11.60;99.90
16955;DHT22;8594;52.052;8.354;2023-12-29T13:37:54;11.60;99.90
16955;DHT22;8594;52.052;8.354;2023-12-29T13:40:36;11.50;99.90
16955;DHT22;8594;52.052;8.354;2023-12-29T13:43:08;11.40;99.90
16955;DHT22;8594;52.052;8.354;2023-12-29T13:45:36;11.40;99.90
16955;DHT22;8594;52.052;8.354;2023-12-29T13:48:09;11.50;99.90
16955;DHT22;8594;52.052;8.354;2023-12-29T13:50:37;11.50;99.90
16955;DHT22;8594;52.052;8.354;2023-12-29T13:53:06;11.60;99.90
16955;DHT22;8594;52.052;8.354;2023-12-29T13:55:32;11.70;99.90
16955;DHT22;8594;52.052;8.354;2023-12-29T13:57:59;11.70;99.90
16955;DHT22;8594;52.052;8.354;2023-12-29T14:00:27;11.60;99.90
16955;DHT22;8594;52.052;8.354;2023-12-29T14:03:01;11.50;99.90
16955;DHT22;8594;52.052;8.354;2023-12-29T14:05:36;11.40;99.90
16955;DHT22;8594;52.052;8.354;2023-12-29T14:08:17;11.40;99.90
16955;DHT22;8594;52.052;8.354;2023-12-29T14:10:49;11.30;99.90
16955;DHT22;8594;52.052;8.354;2023-12-29T14:13:16;11.30;99.90
16955;DHT22;8594;52.052;8.354;2023-12-29T14:15:45;11.30;99.90
16955;DHT22;8594;52.052;8.354;2023-12-29T14:18:35;11.40;99.90
16955;DHT22;8594;52.052;8.354;2023-12-29T14:21:24;11.20;99.90
16955;DHT22;8594;52.052;8.354;2023-12-29T14:24:08;11.30;99.90
16955;DHT22;8594;52.052;8.354;2023-12-29T14:26:36;11.40;99.90
16955;DHT22;8594;52.052;8.354;2023-12-29T14:29:03;11.30;99.90
16955;DHT22;8594;52.052;8.354;2023-12-29T14:31:36;11.40;99.90
16955;DHT22;8594;52.052;8.354;2023-12-29T14:34:04;11.40;99.90
16955;DHT22;8594;52.052;8.354;2023-12-29T14:36:33;11.40;99.90
16955;DHT22;8594;52.052;8.354;2023-12-29T14:39:01;11.50;99.90
16955;DHT22;8594;52.052;8.354;2023-12-29T14:41:29;11.50;99.90
16955;DHT22;8594;52.052;8.354;2023-12-29T14:43:56;11.50;99.90
16955;DHT22;8594;52.052;8.354;2023-12-29T14:46:24;11.40;99.90
16955;DHT22;8594;52.052;8.354;2023-12-29T14:48:51;11.50;99.90
16955;DHT22;8594;52.052;8.354;2023-12-29T14:51:19;11.40;99.90
16955;DHT22;8594;52.052;8.354;2023-12-29T14:53:48;11.20;99.90
16955;DHT22;8594;52.052;8.354;2023-12-29T14:56:16;11.30;99.90
16955;DHT22;8594;52.052;8.354;2023-12-29T14:58:44;11.20;99.90
16955;DHT22;8594;52.052;8.354;2023-12-29T15:01:11;11.30;99.90
16955;DHT22;8594;52.052;8.354;2023-12-29T15:03:37;11.20;99.90
16955;DHT22;8594;52.052;8.354;2023-12-29T15:06:05;11.00;99.90
16955;DHT22;8594;52.052;8.354;2023-12-29T15:08:32;11.00;99.90
16955;DHT22;8594;52.052;8.354;2023-12-29T15:11:02;11.10;99.90
16955;DHT22;8594;52.052;8.354;2023-12-29T15:13:30;11.10;99.90
16955;DHT22;8594;52.052;8.354;2023-12-29T15:15:57;11.00;99.90
16955;DHT22;8594;52.052;8.354;2023-12-29T15:18:25;10.90;99.90
16955;DHT22;8594;52.052;8.354;2023-12-29T15:20:52;10.80;99.90
16955;DHT22;8594;52.052;8.354;2023-12-29T15:23:19;10.70;99.90
16955;DHT22;8594;52.052;8.354;2023-12-29T15:25:46;10.90;99.90
16955;DHT22;8594;52.052;8.354;2023-12-29T15:28:14;10.80;99.90
16955;DHT22;8594;52.052;8.354;2023-12-29T15:30:42;10.90;99.90
16955;DHT22;8594;52.052;8.354;2023-12-29T15:33:09;10.80;99.90
16955;DHT22;8594;52.052;8.354;2023-12-29T15:35:36;10.70;99.90
16955;DHT22;8594;52.052;8.354;2023-12-29T15:38:03;10.80;99.90
16955;DHT22;8594;52.052;8.354;2023-12-29T15:40:30;10.70;99.90
16955;DHT22;8594;52.052;8.354;2023-12-29T15:42:57;10.80;99.90
16955;DHT22;8594;52.052;8.354;2023-12-29T15:45:25;10.80;99.90
16955;DHT22;8594;52.052;8.354;2023-12-29T15:47:52;10.70;99.90
16955;DHT22;8594;52.052;8.354;2023-12-29T15:50:19;10.50;99.90
16955;DHT22;8594;52.052;8.354;2023-12-29T15:52:45;10.40;99.90
16955;DHT22;8594;52.052;8.354;2023-12-29T15:55:13;10.10;99.90